createdAt,value
2022-11-06T00:04:32.411Z,100857.75
2022-11-06T00:09:38.869Z,100865.40
2022-11-06T00:14:45.353Z,100872.69
2022-11-06T00:19:51.166Z,100884.21
2022-11-06T00:24:57.096Z,100890.03
2022-11-06T00:30:06.692Z,100894.73
2022-11-06T00:35:12.820Z,100892.88
2022-11-06T00:40:18.782Z,100895.88
2022-11-06T00:45:25.271Z,100900.75
2022-11-06T00:50:32.280Z,100903.71
2022-11-06T00:55:38.348Z,100911.17
2022-11-06T01:00:44.732Z,100918.98
2022-11-06T01:05:50.631Z,100921.23
2022-11-06T01:10:56.742Z,100920.86
2022-11-06T01:16:05.137Z,100922.64
2022-11-06T01:21:14.425Z,100932.95
2022-11-06T01:26:36.834Z,100936.30
2022-11-06T01:31:45.555Z,100939.65
2022-11-06T01:36:51.425Z,100940.27
2022-11-06T01:41:57.354Z,100939.85
2022-11-06T01:47:05.481Z,100942.38
2022-11-06T01:52:15.028Z,100944.70
2022-11-06T01:57:21.911Z,100940.80
2022-11-06T02:02:27.912Z,100946.78
2022-11-06T02:07:35.190Z,100952.38
2022-11-06T02:12:53.019Z,100951.89
2022-11-06T02:18:13.515Z,100948.46
2022-11-06T02:23:46.165Z,100940.21
2022-11-06T02:28:56.059Z,100946.51
2022-11-06T02:34:06.936Z,100956.02
2022-11-06T02:39:16.934Z,100958.80
2022-11-06T02:44:26.456Z,100967.66
2022-11-06T02:49:38.510Z,100974.98
2022-11-06T02:54:49.335Z,100984.88
2022-11-06T03:00:09.349Z,100987.83
2022-11-06T03:05:19.652Z,100990.78
2022-11-06T03:10:30.355Z,100997.70
2022-11-06T03:15:44.117Z,100998.40
2022-11-06T03:21:00.921Z,100999.45
2022-11-06T03:26:14.706Z,101000.48
2022-11-06T03:31:26.174Z,100997.19
2022-11-06T03:36:35.411Z,100997.73
2022-11-06T03:41:48.286Z,100996.17
2022-11-06T03:46:59.280Z,100995.32
2022-11-06T03:52:11.290Z,101005.84
2022-11-06T03:57:21.899Z,101008.60
2022-11-06T04:02:31.911Z,101015.15
2022-11-06T04:07:42.614Z,101017.88
2022-11-06T04:13:10.095Z,101018.68
2022-11-06T04:18:22.116Z,101022.77
2022-11-06T04:23:40.052Z,101022.71
2022-11-06T04:28:53.103Z,101029.92
2022-11-06T04:34:05.124Z,101032.11
2022-11-06T04:39:18.382Z,101033.04
2022-11-06T04:44:30.198Z,101027.83
2022-11-06T04:49:38.320Z,101024.02
2022-11-06T04:54:44.786Z,101020.37
2022-11-06T04:59:50.782Z,101013.45
2022-11-06T05:04:56.666Z,101010.27
2022-11-06T05:10:02.917Z,101015.39
2022-11-06T05:15:10.036Z,101020.69
2022-11-06T05:20:16.008Z,101025.44
2022-11-06T05:25:22.117Z,101029.08
2022-11-06T05:30:28.668Z,101034.77
2022-11-06T05:35:34.524Z,101037.78
2022-11-06T05:40:40.845Z,101041.56
2022-11-06T05:45:46.870Z,101045.73
2022-11-06T05:50:52.719Z,101049.02
2022-11-06T05:55:58.718Z,101050.23
2022-11-06T06:01:05.307Z,101054.67
2022-11-06T06:06:11.107Z,101059.88
2022-11-06T06:11:16.900Z,101072.71
2022-11-06T06:16:22.843Z,101086.06
2022-11-06T06:21:28.934Z,101095.34
2022-11-06T06:26:34.916Z,101094.51
2022-11-06T06:31:41.805Z,101097.72
2022-11-06T06:36:51.765Z,101105.52
2022-11-06T06:41:58.800Z,101104.69
2022-11-06T06:47:04.701Z,101106.75
2022-11-06T06:52:10.980Z,101107.09
2022-11-06T06:57:17.390Z,101106.52
2022-11-06T07:02:23.402Z,101113.53
2022-11-06T07:07:29.269Z,101114.29
2022-11-06T07:12:35.097Z,101113.46
2022-11-06T07:17:41.806Z,101119.19
2022-11-06T07:22:47.772Z,101122.64
2022-11-06T07:27:54.668Z,101128.87
2022-11-06T07:33:03.815Z,101129.88
2022-11-06T07:38:09.794Z,101134.88
2022-11-06T07:43:15.870Z,101128.25
2022-11-06T07:48:21.668Z,101128.25
2022-11-06T07:53:27.620Z,101133.91
2022-11-06T07:58:34.846Z,101138.37
2022-11-06T08:03:41.089Z,101138.48
2022-11-06T08:08:47.281Z,101137.77
2022-11-06T08:13:53.175Z,101142.09
2022-11-06T08:18:59.073Z,101145.23
2022-11-06T08:24:05.768Z,101148.45
2022-11-06T08:29:11.845Z,101154.43
2022-11-06T08:34:17.924Z,101154.17
2022-11-06T08:39:25.572Z,101155.45
2022-11-06T08:44:32.137Z,101153.90
2022-11-06T08:49:38.188Z,101155.46
2022-11-06T08:54:44.100Z,101149.87
2022-11-06T08:59:50.321Z,101146.64
2022-11-06T09:04:56.336Z,101145.88
2022-11-06T09:10:02.302Z,101143.77
2022-11-06T09:15:09.701Z,101142.04
2022-11-06T09:20:18.933Z,101146.97
2022-11-06T09:25:24.959Z,101141.76
2022-11-06T09:30:32.435Z,101148.96
2022-11-06T09:35:39.060Z,101155.55
2022-11-06T09:40:51.515Z,101163.95
2022-11-06T09:46:06.284Z,101168.84
2022-11-06T09:51:20.105Z,101165.24
2022-11-06T09:56:31.104Z,101169.52
2022-11-06T10:01:44.026Z,101164.59
2022-11-06T10:06:50.218Z,101169.34
2022-11-06T10:12:09.643Z,101167.30
2022-11-06T10:17:29.285Z,101170.73
2022-11-06T10:22:39.871Z,101169.86
2022-11-06T10:28:00.948Z,101164.18
2022-11-06T10:33:30.049Z,101165.47
2022-11-06T10:38:39.271Z,101161.91
2022-11-06T10:43:53.136Z,101160.06
2022-11-06T10:49:01.815Z,101158.10
2022-11-06T10:54:20.431Z,101154.98
2022-11-06T10:59:26.686Z,101147.51
2022-11-06T11:04:33.727Z,101141.74
2022-11-06T11:09:41.813Z,101137.73
2022-11-06T11:15:04.588Z,101130.34
2022-11-06T11:25:53.433Z,101104.45
2022-11-06T11:31:06.248Z,101105.70
2022-11-06T11:36:12.713Z,101104.27
2022-11-06T11:41:25.842Z,101095.02
2022-11-06T11:46:32.851Z,101093.91
2022-11-06T11:51:42.062Z,101098.41
2022-11-06T11:57:07.806Z,101098.13
2022-11-06T12:02:26.842Z,101097.43
2022-11-06T12:07:39.796Z,101094.93
2022-11-06T12:12:53.148Z,101093.39
2022-11-06T12:18:04.733Z,101086.95
2022-11-06T12:23:14.987Z,101083.63
2022-11-06T12:28:24.429Z,101085.38
2022-11-06T12:34:04.646Z,101080.00
2022-11-06T12:39:03.300Z,101075.30
2022-11-06T12:44:13.376Z,101072.59
2022-11-06T12:49:49.551Z,101071.18
2022-11-06T12:55:16.234Z,101070.02
2022-11-06T13:00:31.146Z,101071.53
2022-11-06T13:05:44.857Z,101069.27
2022-11-06T13:11:06.701Z,101070.37
2022-11-06T13:16:19.998Z,101065.92
2022-11-06T13:21:35.848Z,101062.11
2022-11-06T13:26:47.576Z,101061.77
2022-11-06T13:31:58.811Z,101054.16
2022-11-06T13:37:06.788Z,101052.98
2022-11-06T13:42:27.061Z,101046.87
2022-11-06T13:47:52.255Z,101050.86
2022-11-06T13:53:03.401Z,101052.81
2022-11-06T13:58:21.120Z,101046.88
2022-11-06T14:03:55.380Z,101035.21
2022-11-06T14:09:05.759Z,101033.83
2022-11-06T14:14:24.095Z,101034.73
2022-11-06T14:19:30.748Z,101032.08
2022-11-06T14:24:37.754Z,101033.41
2022-11-06T14:30:00.026Z,101033.43
2022-11-06T14:35:51.281Z,101028.25
2022-11-06T14:40:58.367Z,101026.53
2022-11-06T14:46:07.383Z,101029.31
2022-11-06T14:51:14.681Z,101035.66
2022-11-06T14:56:26.294Z,101033.31
2022-11-06T15:01:34.326Z,101030.63
2022-11-06T15:06:46.093Z,101023.42
2022-11-06T15:12:00.672Z,101021.91
2022-11-06T15:17:11.653Z,101023.27
2022-11-06T15:22:26.409Z,101026.30
2022-11-06T15:27:42.881Z,101027.58
2022-11-06T15:32:52.846Z,101027.27
2022-11-06T15:38:05.484Z,101030.55
2022-11-06T15:43:29.717Z,101032.61
2022-11-06T15:48:35.868Z,101030.52
2022-11-06T15:53:42.805Z,101032.70
2022-11-06T15:59:07.375Z,101027.84
2022-11-06T16:04:18.946Z,101034.88
2022-11-06T16:09:27.172Z,101032.09
2022-11-06T16:14:38.355Z,101027.56
2022-11-06T16:19:44.659Z,101024.05
2022-11-06T16:24:55.605Z,101025.69
2022-11-06T16:30:06.669Z,101026.65
2022-11-06T16:35:24.616Z,101024.33
2022-11-06T16:40:51.161Z,101024.06
2022-11-06T16:46:00.755Z,101026.53
2022-11-06T16:51:09.830Z,101035.02
2022-11-06T16:56:15.924Z,101034.62
2022-11-06T17:01:27.175Z,101038.18
2022-11-06T17:06:35.410Z,101038.63
2022-11-06T17:11:41.932Z,101036.28
2022-11-06T17:16:50.181Z,101037.11
2022-11-06T17:21:56.146Z,101035.40
2022-11-06T17:27:02.398Z,101040.61
2022-11-06T17:32:08.605Z,101040.61
2022-11-06T17:37:14.496Z,101037.15
2022-11-06T17:42:20.297Z,101038.98
2022-11-06T17:47:26.193Z,101041.41
2022-11-06T17:52:32.254Z,101043.35
2022-11-06T17:57:38.322Z,101039.30
2022-11-06T18:03:00.378Z,101030.43
2022-11-06T18:08:11.414Z,101020.71
2022-11-06T18:13:17.733Z,101017.90
2022-11-06T18:18:24.031Z,101015.23
2022-11-06T18:23:29.913Z,101022.05
2022-11-06T18:28:35.851Z,101031.75
2022-11-06T18:33:42.483Z,101031.58
2022-11-06T18:38:48.796Z,101033.20
2022-11-06T18:43:59.680Z,101030.57
2022-11-06T18:49:05.829Z,101026.43
2022-11-06T18:54:13.550Z,101021.17
2022-11-06T18:59:19.772Z,101016.77
2022-11-06T19:04:27.836Z,101017.35
2022-11-06T19:09:34.028Z,101008.91
2022-11-06T19:14:39.972Z,101003.52
2022-11-06T19:19:47.317Z,100998.75
2022-11-06T19:24:53.181Z,100999.91
2022-11-06T19:30:00.545Z,101001.23
2022-11-06T19:35:07.947Z,100991.05
2022-11-06T19:40:14.292Z,100986.27
2022-11-06T19:45:22.078Z,100986.55
2022-11-06T19:50:53.621Z,100981.93
2022-11-06T19:55:54.310Z,100982.69
2022-11-06T20:01:00.800Z,100976.84
2022-11-06T20:06:08.416Z,100983.25
2022-11-06T20:11:17.931Z,100989.55
2022-11-06T20:16:23.845Z,100989.17
2022-11-06T20:21:29.999Z,100988.27
2022-11-06T20:26:36.432Z,100987.01
2022-11-06T20:31:42.734Z,100983.28
2022-11-06T20:36:48.915Z,100977.15
2022-11-06T20:41:55.227Z,100975.20
2022-11-06T20:47:01.452Z,100982.46
2022-11-06T20:52:15.680Z,100984.75
2022-11-06T20:57:21.872Z,100985.89
2022-11-06T21:02:28.462Z,100984.11
2022-11-06T21:07:35.338Z,100975.21
2022-11-06T21:12:41.548Z,100968.56
2022-11-06T21:17:47.490Z,100960.89
2022-11-06T21:22:53.684Z,100952.47
2022-11-06T21:27:59.669Z,100946.86
2022-11-06T21:33:05.867Z,100946.58
2022-11-06T21:38:11.684Z,100939.89
2022-11-06T21:43:17.503Z,100937.20
2022-11-06T21:48:44.829Z,100931.67
2022-11-06T21:54:09.463Z,100925.27
2022-11-06T21:59:17.954Z,100924.27
2022-11-06T22:04:23.849Z,100929.71
2022-11-06T22:09:29.821Z,100930.48
2022-11-06T22:14:36.050Z,100929.36
2022-11-06T22:19:42.349Z,100924.94
2022-11-06T22:24:49.184Z,100925.96
2022-11-06T22:29:55.181Z,100929.98
2022-11-06T22:35:01.080Z,100931.23
2022-11-06T22:40:09.710Z,100926.14
2022-11-06T22:45:15.836Z,100920.41
2022-11-06T22:50:21.669Z,100920.36
2022-11-06T22:55:27.789Z,100918.73
2022-11-06T23:00:33.857Z,100914.55
2022-11-06T23:05:41.877Z,100910.71
2022-11-06T23:10:47.860Z,100909.18
2022-11-06T23:16:03.139Z,100914.92
2022-11-06T23:21:15.693Z,100918.96
2022-11-06T23:26:21.703Z,100917.08
2022-11-06T23:31:27.929Z,100916.70
2022-11-06T23:36:35.297Z,100918.66
2022-11-06T23:41:45.955Z,100920.26
2022-11-06T23:46:53.405Z,100919.69
2022-11-06T23:51:59.617Z,100917.94
2022-11-06T23:57:07.177Z,100914.58
